SWA1738 KSNA-KOAK
Flight info
| Callsign | SWA1738 |
|---|---|
| Flight time | 1h 4m |
| Altitude | 38000 |
| Route | HHERO3 OROSZ COREZ RGOOD EMZOH4 |
| Aircraft | B738/M-SDE2E3FGHIRWXY/LB1 |
Departure
| Time | 2026-04-30 20:34 |
|---|---|
| Airport | John Wayne Orange County International Airport (KSNA) |
Arrival
| Time | 2026-04-30 21:39 |
|---|---|
| Airport | San Francisco Bay Oakland International Airport (KOAK) |
| Time | Latitude | Longitude | Altitude | Speed | Heading |
|---|---|---|---|---|---|
| 2026-04-30 20:00 | 33.67499 | -117.86504 | 50 ft | 0 kts | 118° |
| 2026-04-30 20:20 | 33.67502 | -117.86510 | 50 ft | 2 kts | 117° |
| 2026-04-30 20:21 | 33.67509 | -117.86528 | 47 ft | 2 kts | 117° |
| 2026-04-30 20:21 | 33.67517 | -117.86546 | 47 ft | 2 kts | 114° |
| 2026-04-30 20:21 | 33.67522 | -117.86564 | 45 ft | 2 kts | 98° |
| 2026-04-30 20:21 | 33.67518 | -117.86582 | 47 ft | 2 kts | 33° |
| 2026-04-30 20:22 | 33.67514 | -117.86584 | 49 ft | 0 kts | 30° |
| 2026-04-30 20:29 | 33.67518 | -117.86582 | 50 ft | 2 kts | 30° |
| 2026-04-30 20:30 | 33.67674 | -117.86482 | 50 ft | 14 kts | 27° |
| 2026-04-30 20:30 | 33.67949 | -117.86309 | 49 ft | 14 kts | 28° |
| 2026-04-30 20:31 | 33.68112 | -117.86414 | 51 ft | 3 kts | 298° |
| 2026-04-30 20:32 | 33.68114 | -117.86419 | 50 ft | 0 kts | 298° |
| 2026-04-30 20:32 | 33.68138 | -117.86478 | 50 ft | 9 kts | 289° |
| 2026-04-30 20:33 | 33.68111 | -117.86536 | 51 ft | 8 kts | 214° |
| 2026-04-30 20:33 | 33.67824 | -117.86723 | 52 ft | 90 kts | 208° |
| 2026-04-30 20:33 | 33.67058 | -117.87218 | 154 ft | 154 kts | 210° |
| 2026-04-30 20:34 | 33.64987 | -117.88769 | 1783 ft | 191 kts | 204° |
| 2026-04-30 20:34 | 33.62202 | -117.89149 | 3225 ft | 218 kts | 186° |
| 2026-04-30 20:35 | 33.60665 | -117.89400 | 3719 ft | 235 kts | 186° |
| 2026-04-30 20:35 | 33.58952 | -117.89641 | 4127 ft | 254 kts | 185° |
| 2026-04-30 20:35 | 33.55758 | -117.91403 | 5362 ft | 263 kts | 221° |
| 2026-04-30 20:36 | 33.54420 | -117.92912 | 6154 ft | 265 kts | 224° |
| 2026-04-30 20:36 | 33.53069 | -117.94489 | 6681 ft | 282 kts | 224° |
| 2026-04-30 20:36 | 33.50166 | -117.97814 | 7827 ft | 291 kts | 223° |
| 2026-04-30 20:37 | 33.48689 | -117.99485 | 7984 ft | 293 kts | 223° |
| 2026-04-30 20:37 | 33.47366 | -118.01349 | 8047 ft | 297 kts | 237° |
| 2026-04-30 20:37 | 33.46320 | -118.03494 | 8780 ft | 298 kts | 241° |
| 2026-04-30 20:37 | 33.45319 | -118.05664 | 9618 ft | 298 kts | 240° |
| 2026-04-30 20:38 | 33.44302 | -118.07815 | 9958 ft | 299 kts | 240° |
| 2026-04-30 20:38 | 33.43261 | -118.09965 | 9994 ft | 298 kts | 239° |
| 2026-04-30 20:38 | 33.42210 | -118.12112 | 10019 ft | 300 kts | 239° |
| 2026-04-30 20:39 | 33.41258 | -118.16048 | 10020 ft | 302 kts | 275° |
| 2026-04-30 20:39 | 33.41649 | -118.18509 | 10035 ft | 302 kts | 284° |
| 2026-04-30 20:39 | 33.42152 | -118.20959 | 10032 ft | 303 kts | 285° |
| 2026-04-30 20:40 | 33.43142 | -118.25872 | 10026 ft | 303 kts | 285° |
| 2026-04-30 20:40 | 33.43857 | -118.28231 | 10034 ft | 300 kts | 296° |
| 2026-04-30 20:40 | 33.44771 | -118.30475 | 10036 ft | 299 kts | 298° |
| 2026-04-30 20:41 | 33.46666 | -118.34988 | 9849 ft | 286 kts | 297° |
| 2026-04-30 20:41 | 33.47489 | -118.37018 | 10540 ft | 260 kts | 297° |
| 2026-04-30 20:41 | 33.48269 | -118.38969 | 11308 ft | 261 kts | 297° |
| 2026-04-30 20:41 | 33.49048 | -118.40933 | 12141 ft | 260 kts | 297° |
| 2026-04-30 20:42 | 33.49815 | -118.42878 | 13057 ft | 257 kts | 297° |
| 2026-04-30 20:42 | 33.50568 | -118.44793 | 13960 ft | 252 kts | 297° |
| 2026-04-30 20:42 | 33.52558 | -118.47944 | 15592 ft | 229 kts | 338° |
| 2026-04-30 20:43 | 33.54042 | -118.48458 | 16349 ft | 220 kts | 358° |
| 2026-04-30 20:43 | 33.55557 | -118.48401 | 17010 ft | 218 kts | 6° |
| 2026-04-30 20:43 | 33.57148 | -118.48186 | 17083 ft | 245 kts | 7° |
| 2026-04-30 20:44 | 33.60869 | -118.47637 | 17384 ft | 292 kts | 7° |
| 2026-04-30 20:44 | 33.62964 | -118.47337 | 17530 ft | 314 kts | 7° |
| 2026-04-30 20:44 | 33.67605 | -118.46697 | 17828 ft | 356 kts | 7° |
| 2026-04-30 20:45 | 33.72699 | -118.46010 | 18598 ft | 375 kts | 6° |
| 2026-04-30 20:45 | 33.75283 | -118.45882 | 19183 ft | 378 kts | 1° |
| 2026-04-30 20:45 | 33.77918 | -118.45890 | 19772 ft | 380 kts | 0° |
| 2026-04-30 20:46 | 33.85960 | -118.45956 | 21427 ft | 390 kts | 0° |
| 2026-04-30 20:46 | 33.88718 | -118.45965 | 21938 ft | 394 kts | 0° |
| 2026-04-30 20:47 | 33.94213 | -118.45973 | 22954 ft | 400 kts | 0° |
| 2026-04-30 20:47 | 33.97009 | -118.45979 | 23451 ft | 404 kts | 359° |
| 2026-04-30 20:48 | 34.02579 | -118.47123 | 24308 ft | 410 kts | 342° |
| 2026-04-30 20:48 | 34.05234 | -118.48406 | 24768 ft | 412 kts | 338° |
| 2026-04-30 20:48 | 34.07873 | -118.49776 | 25206 ft | 414 kts | 338° |
| 2026-04-30 20:48 | 34.10522 | -118.51164 | 25615 ft | 416 kts | 338° |
| 2026-04-30 20:49 | 34.13185 | -118.52550 | 25995 ft | 418 kts | 338° |
| 2026-04-30 20:49 | 34.15869 | -118.53934 | 26410 ft | 420 kts | 338° |
| 2026-04-30 20:49 | 34.18559 | -118.55311 | 26814 ft | 422 kts | 338° |
| 2026-04-30 20:50 | 34.23992 | -118.58083 | 27565 ft | 426 kts | 338° |
| 2026-04-30 20:50 | 34.26723 | -118.59476 | 27925 ft | 428 kts | 338° |
| 2026-04-30 20:50 | 34.29473 | -118.60881 | 28278 ft | 430 kts | 338° |
| 2026-04-30 20:50 | 34.32237 | -118.62284 | 28624 ft | 432 kts | 338° |
| 2026-04-30 20:51 | 34.35028 | -118.63655 | 28977 ft | 434 kts | 338° |
| 2026-04-30 20:51 | 34.40656 | -118.66395 | 29643 ft | 438 kts | 338° |
| 2026-04-30 20:51 | 34.43452 | -118.67869 | 30009 ft | 439 kts | 333° |
| 2026-04-30 20:52 | 34.46096 | -118.69680 | 30467 ft | 435 kts | 330° |
| 2026-04-30 20:52 | 34.48698 | -118.71535 | 30916 ft | 433 kts | 330° |
| 2026-04-30 20:52 | 34.53883 | -118.75260 | 31586 ft | 433 kts | 330° |
| 2026-04-30 20:53 | 34.56440 | -118.77088 | 31968 ft | 431 kts | 329° |
| 2026-04-30 20:53 | 34.59052 | -118.78949 | 32392 ft | 429 kts | 329° |
| 2026-04-30 20:53 | 34.61625 | -118.80779 | 32771 ft | 427 kts | 330° |
| 2026-04-30 20:54 | 34.66726 | -118.84401 | 33405 ft | 427 kts | 329° |
| 2026-04-30 20:54 | 34.69283 | -118.86217 | 33787 ft | 426 kts | 329° |
| 2026-04-30 20:54 | 34.71835 | -118.88031 | 34162 ft | 424 kts | 329° |
| 2026-04-30 20:55 | 34.76912 | -118.91644 | 34727 ft | 423 kts | 329° |
| 2026-04-30 20:55 | 34.79450 | -118.93452 | 34974 ft | 423 kts | 329° |
| 2026-04-30 20:55 | 34.81989 | -118.95261 | 35286 ft | 422 kts | 329° |
| 2026-04-30 20:56 | 34.87042 | -118.98867 | 35863 ft | 420 kts | 329° |
| 2026-04-30 20:56 | 34.89563 | -119.00669 | 36141 ft | 420 kts | 329° |
| 2026-04-30 20:56 | 34.94601 | -119.04273 | 36653 ft | 420 kts | 329° |
| 2026-04-30 20:57 | 34.97112 | -119.06071 | 36940 ft | 418 kts | 328° |
| 2026-04-30 20:57 | 34.99619 | -119.07867 | 37218 ft | 418 kts | 328° |
| 2026-04-30 20:57 | 35.02128 | -119.09666 | 37435 ft | 418 kts | 328° |
| 2026-04-30 20:58 | 35.07140 | -119.13264 | 37892 ft | 417 kts | 328° |
| 2026-04-30 20:58 | 35.09648 | -119.15067 | 37965 ft | 420 kts | 328° |
| 2026-04-30 20:58 | 35.14683 | -119.18690 | 37972 ft | 419 kts | 328° |
| 2026-04-30 20:59 | 35.22178 | -119.24091 | 37973 ft | 415 kts | 328° |
| 2026-04-30 21:00 | 35.32032 | -119.31211 | 37971 ft | 411 kts | 328° |
| 2026-04-30 21:01 | 35.39422 | -119.36565 | 37976 ft | 412 kts | 328° |
| 2026-04-30 21:02 | 35.46833 | -119.41945 | 37974 ft | 414 kts | 328° |
| 2026-04-30 21:02 | 35.51795 | -119.45554 | 37965 ft | 416 kts | 328° |
| 2026-04-30 21:03 | 35.56694 | -119.49324 | 37955 ft | 416 kts | 320° |
| 2026-04-30 21:03 | 35.61147 | -119.53869 | 37970 ft | 417 kts | 319° |
| 2026-04-30 21:04 | 35.65586 | -119.58467 | 37973 ft | 417 kts | 319° |
| 2026-04-30 21:04 | 35.72278 | -119.65346 | 37973 ft | 418 kts | 319° |
| 2026-04-30 21:05 | 35.76744 | -119.69927 | 37979 ft | 418 kts | 319° |
| 2026-04-30 21:05 | 35.81203 | -119.74509 | 37972 ft | 417 kts | 319° |
| 2026-04-30 21:06 | 35.85657 | -119.79093 | 37976 ft | 416 kts | 319° |
| 2026-04-30 21:06 | 35.90087 | -119.83658 | 37976 ft | 415 kts | 319° |
| 2026-04-30 21:07 | 35.94364 | -119.88411 | 37978 ft | 413 kts | 315° |
| 2026-04-30 21:07 | 35.98480 | -119.93361 | 37973 ft | 412 kts | 315° |
| 2026-04-30 21:08 | 36.02585 | -119.98299 | 37982 ft | 412 kts | 315° |
| 2026-04-30 21:08 | 36.06700 | -120.03210 | 37977 ft | 411 kts | 315° |
| 2026-04-30 21:09 | 36.10789 | -120.08077 | 37985 ft | 410 kts | 315° |
| 2026-04-30 21:09 | 36.14899 | -120.12970 | 37983 ft | 410 kts | 315° |
| 2026-04-30 21:10 | 36.16965 | -120.15433 | 37607 ft | 416 kts | 315° |
| 2026-04-30 21:10 | 36.19043 | -120.17912 | 37121 ft | 415 kts | 315° |
| 2026-04-30 21:10 | 36.21114 | -120.20385 | 36573 ft | 412 kts | 315° |
| 2026-04-30 21:10 | 36.23178 | -120.22852 | 35964 ft | 412 kts | 315° |
| 2026-04-30 21:11 | 36.25239 | -120.25316 | 35336 ft | 413 kts | 315° |
| 2026-04-30 21:11 | 36.27306 | -120.27791 | 34754 ft | 412 kts | 315° |
| 2026-04-30 21:11 | 36.29359 | -120.30250 | 34319 ft | 408 kts | 315° |
| 2026-04-30 21:11 | 36.31393 | -120.32688 | 33849 ft | 405 kts | 315° |
| 2026-04-30 21:12 | 36.33409 | -120.35106 | 33347 ft | 402 kts | 315° |
| 2026-04-30 21:12 | 36.35411 | -120.37510 | 32898 ft | 398 kts | 315° |
| 2026-04-30 21:12 | 36.37394 | -120.39892 | 32425 ft | 395 kts | 315° |
| 2026-04-30 21:12 | 36.39355 | -120.42250 | 31982 ft | 391 kts | 315° |
| 2026-04-30 21:13 | 36.41301 | -120.44593 | 31551 ft | 388 kts | 315° |
| 2026-04-30 21:13 | 36.43232 | -120.46918 | 31128 ft | 385 kts | 315° |
| 2026-04-30 21:13 | 36.45122 | -120.49197 | 30713 ft | 382 kts | 315° |
| 2026-04-30 21:13 | 36.47026 | -120.51493 | 30288 ft | 380 kts | 315° |
| 2026-04-30 21:14 | 36.48913 | -120.53771 | 29841 ft | 378 kts | 315° |
| 2026-04-30 21:14 | 36.50791 | -120.56039 | 29356 ft | 375 kts | 315° |
| 2026-04-30 21:14 | 36.52649 | -120.58284 | 28918 ft | 371 kts | 315° |
| 2026-04-30 21:14 | 36.54507 | -120.60504 | 28423 ft | 369 kts | 317° |
| 2026-04-30 21:15 | 36.56410 | -120.62639 | 27937 ft | 367 kts | 318° |
| 2026-04-30 21:15 | 36.58324 | -120.64731 | 27500 ft | 365 kts | 319° |
| 2026-04-30 21:15 | 36.60223 | -120.66800 | 27069 ft | 362 kts | 319° |
| 2026-04-30 21:15 | 36.62108 | -120.68864 | 26652 ft | 360 kts | 319° |
| 2026-04-30 21:16 | 36.63974 | -120.70918 | 26241 ft | 357 kts | 318° |
| 2026-04-30 21:16 | 36.65827 | -120.72967 | 25828 ft | 355 kts | 319° |
| 2026-04-30 21:16 | 36.67666 | -120.75006 | 25428 ft | 353 kts | 319° |
| 2026-04-30 21:16 | 36.69494 | -120.77036 | 25025 ft | 351 kts | 319° |
| 2026-04-30 21:17 | 36.71314 | -120.79060 | 24619 ft | 350 kts | 319° |
| 2026-04-30 21:17 | 36.73127 | -120.81076 | 24226 ft | 348 kts | 319° |
| 2026-04-30 21:17 | 36.74929 | -120.83081 | 23836 ft | 347 kts | 319° |
| 2026-04-30 21:17 | 36.76729 | -120.85085 | 23380 ft | 347 kts | 319° |
| 2026-04-30 21:18 | 36.78501 | -120.87056 | 22913 ft | 345 kts | 319° |
| 2026-04-30 21:18 | 36.80293 | -120.89041 | 22470 ft | 343 kts | 319° |
| 2026-04-30 21:18 | 36.82072 | -120.91011 | 22060 ft | 341 kts | 319° |
| 2026-04-30 21:18 | 36.83840 | -120.92969 | 21654 ft | 338 kts | 319° |
| 2026-04-30 21:19 | 36.85592 | -120.94911 | 21269 ft | 336 kts | 319° |
| 2026-04-30 21:19 | 36.87336 | -120.96845 | 20877 ft | 334 kts | 319° |
| 2026-04-30 21:19 | 36.89069 | -120.98770 | 20491 ft | 332 kts | 319° |
| 2026-04-30 21:19 | 36.90789 | -121.00681 | 20113 ft | 330 kts | 319° |
| 2026-04-30 21:20 | 36.92503 | -121.02587 | 19733 ft | 329 kts | 320° |
| 2026-04-30 21:20 | 36.94209 | -121.04485 | 19357 ft | 327 kts | 320° |
| 2026-04-30 21:20 | 36.95903 | -121.06373 | 18991 ft | 326 kts | 320° |
| 2026-04-30 21:20 | 36.97597 | -121.08261 | 18622 ft | 325 kts | 320° |
| 2026-04-30 21:21 | 36.99286 | -121.10144 | 18224 ft | 325 kts | 320° |
| 2026-04-30 21:21 | 37.00971 | -121.12024 | 17795 ft | 324 kts | 320° |
| 2026-04-30 21:21 | 37.04329 | -121.15773 | 17002 ft | 322 kts | 319° |
| 2026-04-30 21:22 | 37.05993 | -121.17633 | 16636 ft | 320 kts | 319° |
| 2026-04-30 21:22 | 37.10934 | -121.23163 | 15511 ft | 315 kts | 319° |
| 2026-04-30 21:23 | 37.12545 | -121.24968 | 15147 ft | 314 kts | 319° |
| 2026-04-30 21:23 | 37.14167 | -121.26803 | 14773 ft | 315 kts | 319° |
| 2026-04-30 21:23 | 37.17409 | -121.30566 | 13994 ft | 320 kts | 318° |
| 2026-04-30 21:24 | 37.19043 | -121.32471 | 13563 ft | 321 kts | 318° |
| 2026-04-30 21:24 | 37.20676 | -121.34375 | 13134 ft | 320 kts | 317° |
| 2026-04-30 21:24 | 37.22304 | -121.36272 | 12727 ft | 319 kts | 317° |
| 2026-04-30 21:24 | 37.23925 | -121.38161 | 12328 ft | 317 kts | 318° |
| 2026-04-30 21:25 | 37.27151 | -121.41922 | 11534 ft | 316 kts | 317° |
| 2026-04-30 21:25 | 37.28757 | -121.43796 | 11174 ft | 315 kts | 317° |
| 2026-04-30 21:25 | 37.30361 | -121.45667 | 10778 ft | 315 kts | 317° |
| 2026-04-30 21:26 | 37.33562 | -121.49405 | 10020 ft | 314 kts | 317° |
| 2026-04-30 21:26 | 37.35142 | -121.51252 | 9950 ft | 303 kts | 317° |
| 2026-04-30 21:27 | 37.37623 | -121.54154 | 9818 ft | 285 kts | 318° |
| 2026-04-30 21:27 | 37.39073 | -121.55821 | 9628 ft | 280 kts | 319° |
| 2026-04-30 21:27 | 37.40984 | -121.57997 | 9209 ft | 280 kts | 319° |
| 2026-04-30 21:28 | 37.43809 | -121.61225 | 8949 ft | 267 kts | 317° |
| 2026-04-30 21:28 | 37.44645 | -121.62386 | 8858 ft | 263 kts | 308° |
| 2026-04-30 21:28 | 37.46674 | -121.66014 | 8696 ft | 245 kts | 305° |
| 2026-04-30 21:29 | 37.47641 | -121.67749 | 8550 ft | 239 kts | 306° |
| 2026-04-30 21:29 | 37.50426 | -121.72689 | 8126 ft | 217 kts | 306° |
| 2026-04-30 21:30 | 37.52160 | -121.75733 | 7542 ft | 213 kts | 306° |
| 2026-04-30 21:31 | 37.53557 | -121.80856 | 6624 ft | 210 kts | 278° |
| 2026-04-30 21:31 | 37.53976 | -121.84474 | 6020 ft | 208 kts | 278° |
| 2026-04-30 21:32 | 37.54395 | -121.88060 | 5408 ft | 206 kts | 279° |
| 2026-04-30 21:32 | 37.54602 | -121.89829 | 5188 ft | 203 kts | 279° |
| 2026-04-30 21:32 | 37.54805 | -121.91573 | 5033 ft | 201 kts | 279° |
| 2026-04-30 21:32 | 37.55008 | -121.93315 | 4906 ft | 201 kts | 279° |
| 2026-04-30 21:33 | 37.55213 | -121.95071 | 4770 ft | 204 kts | 279° |
| 2026-04-30 21:33 | 37.55630 | -121.98652 | 4416 ft | 209 kts | 279° |
| 2026-04-30 21:33 | 37.56057 | -122.00370 | 4176 ft | 206 kts | 306° |
| 2026-04-30 21:34 | 37.56971 | -122.01722 | 4011 ft | 201 kts | 311° |
| 2026-04-30 21:34 | 37.58839 | -122.04500 | 3147 ft | 217 kts | 310° |
| 2026-04-30 21:34 | 37.59841 | -122.05939 | 2789 ft | 217 kts | 311° |
| 2026-04-30 21:35 | 37.60807 | -122.07340 | 2641 ft | 206 kts | 310° |
| 2026-04-30 21:35 | 37.61707 | -122.08689 | 2518 ft | 195 kts | 310° |
| 2026-04-30 21:35 | 37.62560 | -122.09975 | 2343 ft | 189 kts | 309° |
| 2026-04-30 21:35 | 37.63391 | -122.11230 | 2098 ft | 183 kts | 309° |
| 2026-04-30 21:36 | 37.64183 | -122.12426 | 1871 ft | 173 kts | 308° |
| 2026-04-30 21:36 | 37.64933 | -122.13559 | 1632 ft | 164 kts | 307° |
| 2026-04-30 21:37 | 37.67039 | -122.16735 | 1012 ft | 152 kts | 308° |
| 2026-04-30 21:37 | 37.67692 | -122.17717 | 831 ft | 139 kts | 307° |
| 2026-04-30 21:37 | 37.68300 | -122.18639 | 638 ft | 135 kts | 307° |
| 2026-04-30 21:37 | 37.68884 | -122.19563 | 469 ft | 136 kts | 306° |
| 2026-04-30 21:38 | 37.69507 | -122.20461 | 218 ft | 135 kts | 307° |
| 2026-04-30 21:38 | 37.70090 | -122.21338 | 56 ft | 131 kts | 307° |
| 2026-04-30 21:38 | 37.70664 | -122.22178 | 11 ft | 117 kts | 307° |
| 2026-04-30 21:38 | 37.71106 | -122.22866 | 11 ft | 84 kts | 310° |
| 2026-04-30 21:39 | 37.71404 | -122.23313 | 9 ft | 49 kts | 310° |
| 2026-04-30 21:39 | 37.71609 | -122.23622 | 10 ft | 43 kts | 310° |
| 2026-04-30 21:39 | 37.71761 | -122.23849 | 11 ft | 30 kts | 311° |
| 2026-04-30 21:39 | 37.71903 | -122.24023 | 13 ft | 28 kts | 341° |
| 2026-04-30 21:40 | 37.71988 | -122.23890 | 12 ft | 19 kts | 126° |
| 2026-04-30 21:40 | 37.71908 | -122.23786 | 11 ft | 15 kts | 124° |
| 2026-04-30 21:40 | 37.71852 | -122.23676 | 12 ft | 15 kts | 122° |
| 2026-04-30 21:40 | 37.71800 | -122.23568 | 11 ft | 14 kts | 121° |
| 2026-04-30 21:41 | 37.71750 | -122.23466 | 11 ft | 13 kts | 121° |
| 2026-04-30 21:41 | 37.71697 | -122.23370 | 11 ft | 14 kts | 128° |
| 2026-04-30 21:41 | 37.71628 | -122.23267 | 11 ft | 17 kts | 130° |
| 2026-04-30 21:41 | 37.71546 | -122.23144 | 11 ft | 20 kts | 130° |
| 2026-04-30 21:42 | 37.71445 | -122.22991 | 11 ft | 26 kts | 130° |
| 2026-04-30 21:42 | 37.71323 | -122.22807 | 11 ft | 28 kts | 130° |
| 2026-04-30 21:42 | 37.71205 | -122.22632 | 12 ft | 21 kts | 131° |
| 2026-04-30 21:42 | 37.71123 | -122.22509 | 11 ft | 11 kts | 127° |
| 2026-04-30 21:43 | 37.71122 | -122.22422 | 11 ft | 11 kts | 56° |
| 2026-04-30 21:43 | 37.71178 | -122.22361 | 11 ft | 11 kts | 38° |
| 2026-04-30 21:43 | 37.71245 | -122.22293 | 13 ft | 15 kts | 39° |
| 2026-04-30 21:43 | 37.71300 | -122.22201 | 11 ft | 13 kts | 105° |
| 2026-04-30 21:44 | 37.71242 | -122.22113 | 12 ft | 13 kts | 131° |